createdAt,value
2023-04-26T00:00:50.535Z,12.99
2023-04-26T00:01:50.457Z,13.04
2023-04-26T00:02:50.493Z,13.00
2023-04-26T00:03:50.624Z,13.11
2023-04-26T00:04:50.480Z,13.02
2023-04-26T00:05:50.299Z,12.95
2023-04-26T00:06:50.184Z,13.02
2023-04-26T00:07:50.122Z,13.04
2023-04-26T00:08:50.241Z,12.93
2023-04-26T00:09:50.018Z,13.02
2023-04-26T00:10:49.949Z,12.93
2023-04-26T00:11:49.899Z,13.00
2023-04-26T00:12:49.844Z,12.97
2023-04-26T00:13:49.782Z,12.95
2023-04-26T00:14:49.734Z,12.97
2023-04-26T00:15:49.671Z,13.02
2023-04-26T00:16:49.679Z,13.00
2023-04-26T00:17:49.601Z,12.99
2023-04-26T00:18:49.555Z,12.95
2023-04-26T00:19:49.448Z,12.99
2023-04-26T00:20:49.404Z,13.02
2023-04-26T00:21:49.332Z,13.00
2023-04-26T00:22:49.275Z,13.02
2023-04-26T00:23:49.228Z,12.97
2023-04-26T00:24:49.164Z,12.97
2023-04-26T00:25:49.109Z,13.00
2023-04-26T00:26:49.053Z,13.03
2023-04-26T00:27:48.994Z,13.03
2023-04-26T00:28:48.942Z,13.00
2023-04-26T00:29:48.879Z,12.95
2023-04-26T00:30:48.832Z,12.96
2023-04-26T00:31:48.828Z,13.03
2023-04-26T00:32:48.731Z,12.97
2023-04-26T00:33:48.699Z,12.96
2023-04-26T00:34:48.601Z,12.88
2023-04-26T00:35:48.552Z,12.93
2023-04-26T00:36:48.522Z,12.89
2023-04-26T00:37:48.443Z,12.87
2023-04-26T00:38:48.373Z,12.89
2023-04-26T00:39:48.324Z,12.87
2023-04-26T00:40:48.263Z,12.99
2023-04-26T00:41:48.207Z,12.87
2023-04-26T00:42:48.151Z,12.89
2023-04-26T00:43:48.098Z,12.92
2023-04-26T00:44:48.041Z,12.92
2023-04-26T00:45:48.018Z,12.87
2023-04-26T00:46:47.935Z,12.92
2023-04-26T00:47:47.910Z,12.84
2023-04-26T00:48:47.829Z,12.89
2023-04-26T00:49:47.757Z,12.87
2023-04-26T00:50:47.716Z,12.88
2023-04-26T00:51:47.648Z,12.84
2023-04-26T00:52:47.588Z,12.82
2023-04-26T00:53:47.533Z,12.79
2023-04-26T00:54:47.475Z,12.87
2023-04-26T00:55:47.486Z,12.85
2023-04-26T00:56:47.371Z,12.89
2023-04-26T00:57:47.312Z,12.89
2023-04-26T00:58:47.256Z,12.82
2023-04-26T00:59:47.207Z,12.84
2023-04-26T01:00:47.161Z,12.89
2023-04-26T01:01:47.084Z,12.81
2023-04-26T01:02:47.208Z,12.84
2023-04-26T01:03:47.109Z,12.88
2023-04-26T01:04:46.921Z,12.85
2023-04-26T01:05:46.858Z,12.81
2023-04-26T01:06:46.799Z,12.84
2023-04-26T01:07:46.742Z,12.81
2023-04-26T01:08:46.687Z,12.82
2023-04-26T01:09:46.634Z,12.79
2023-04-26T01:10:46.572Z,12.78
2023-04-26T01:11:46.521Z,12.87
2023-04-26T01:12:47.140Z,12.82
2023-04-26T01:13:46.408Z,12.82
2023-04-26T01:14:46.353Z,12.82
2023-04-26T01:15:46.306Z,12.77
2023-04-26T01:16:46.262Z,12.84
2023-04-26T01:17:46.235Z,12.79
2023-04-26T01:18:46.128Z,12.81
2023-04-26T01:19:46.066Z,12.82
2023-04-26T01:20:46.020Z,12.82
2023-04-26T01:21:45.953Z,12.79
2023-04-26T01:22:45.900Z,12.79
2023-04-26T01:23:45.846Z,12.84
2023-04-26T01:24:45.781Z,12.82
2023-04-26T01:25:45.729Z,12.84
2023-04-26T01:26:45.923Z,12.79
2023-04-26T01:27:45.612Z,12.69
2023-04-26T01:28:45.558Z,12.75
2023-04-26T01:29:45.503Z,12.75
2023-04-26T01:30:45.461Z,12.82
2023-04-26T01:31:45.401Z,12.75
2023-04-26T01:32:45.383Z,12.78
2023-04-26T01:33:45.283Z,12.75
2023-04-26T01:34:45.225Z,12.79
2023-04-26T01:35:45.169Z,12.78
2023-04-26T01:36:45.198Z,12.81
2023-04-26T01:37:45.061Z,12.74
2023-04-26T01:38:44.992Z,12.75
2023-04-26T01:39:44.942Z,12.82
2023-04-26T01:40:44.889Z,12.70
2023-04-26T01:41:44.825Z,12.81
2023-04-26T01:42:44.776Z,12.74
2023-04-26T01:43:44.709Z,12.74
2023-04-26T01:44:44.655Z,12.79
2023-04-26T01:45:44.598Z,12.75
2023-04-26T01:46:44.599Z,12.75
2023-04-26T01:47:44.532Z,12.77
2023-04-26T01:48:44.425Z,12.74
2023-04-26T01:49:44.372Z,12.74
2023-04-26T01:50:44.321Z,12.78
2023-04-26T01:51:44.272Z,12.77
2023-04-26T01:52:44.245Z,12.71
2023-04-26T01:53:44.158Z,12.75
2023-04-26T01:54:44.095Z,12.75
2023-04-26T01:55:44.038Z,12.71
2023-04-26T01:56:43.978Z,12.67
2023-04-26T01:57:43.920Z,12.67
2023-04-26T01:58:43.873Z,12.74
2023-04-26T01:59:43.815Z,12.63
2023-04-26T02:00:43.753Z,12.69
2023-04-26T02:01:43.761Z,12.64
2023-04-26T02:02:43.745Z,12.71
2023-04-26T02:03:43.687Z,12.63
2023-04-26T02:04:43.562Z,12.63
2023-04-26T02:05:43.468Z,12.67
2023-04-26T02:06:43.417Z,12.62
2023-04-26T02:07:43.359Z,12.63
2023-04-26T02:08:43.306Z,12.62
2023-04-26T02:09:43.241Z,12.69
2023-04-26T02:10:43.191Z,12.56
2023-04-26T02:11:43.128Z,12.62
2023-04-26T02:12:43.084Z,12.69
2023-04-26T02:13:43.017Z,12.60
2023-04-26T02:14:42.967Z,12.62
2023-04-26T02:15:42.936Z,12.59
2023-04-26T02:16:42.855Z,12.66
2023-04-26T02:17:42.808Z,12.63
2023-04-26T02:18:42.742Z,12.57
2023-04-26T02:19:42.696Z,12.60
2023-04-26T02:20:42.630Z,12.59
2023-04-26T02:21:42.568Z,12.57
2023-04-26T02:22:42.511Z,12.57
2023-04-26T02:23:42.456Z,12.59
2023-04-26T02:24:49.167Z,12.57
2023-04-26T02:25:42.345Z,12.57
2023-04-26T02:26:42.287Z,12.60
2023-04-26T02:27:42.245Z,12.56
2023-04-26T02:28:42.178Z,12.60
2023-04-26T02:29:44.705Z,12.59
2023-04-26T02:30:42.068Z,12.57
2023-04-26T02:31:42.035Z,12.62
2023-04-26T02:32:41.962Z,12.62
2023-04-26T02:33:41.888Z,12.59
2023-04-26T02:34:41.834Z,12.57
2023-04-26T02:35:41.779Z,12.57
2023-04-26T02:36:41.721Z,12.45
2023-04-26T02:37:41.667Z,12.62
2023-04-26T02:38:41.623Z,12.46
2023-04-26T02:39:41.547Z,12.60
2023-04-26T02:40:41.504Z,12.59
2023-04-26T02:41:41.442Z,12.44
2023-04-26T02:42:41.386Z,12.59
2023-04-26T02:43:41.328Z,12.42
2023-04-26T02:44:41.272Z,12.49
2023-04-26T02:45:41.217Z,12.42
2023-04-26T02:46:41.242Z,12.46
2023-04-26T02:47:41.128Z,12.49
2023-04-26T02:48:41.048Z,12.48
2023-04-26T02:49:40.988Z,12.44
2023-04-26T02:50:40.928Z,12.48
2023-04-26T02:51:40.871Z,12.48
2023-04-26T02:52:40.816Z,12.42
2023-04-26T02:53:40.756Z,12.44
2023-04-26T02:54:40.699Z,12.48
2023-04-26T02:55:40.647Z,12.51
2023-04-26T02:56:40.611Z,12.52
2023-04-26T02:57:40.531Z,12.44
2023-04-26T02:58:40.481Z,12.45
2023-04-26T02:59:40.418Z,12.46
2023-04-26T03:00:40.367Z,12.48
2023-04-26T03:01:40.334Z,12.46
2023-04-26T03:02:55.274Z,12.46
2023-04-26T03:03:40.242Z,12.46
2023-04-26T03:04:40.137Z,12.44
2023-04-26T03:05:40.079Z,12.48
2023-04-26T03:06:40.021Z,12.48
2023-04-26T03:07:39.960Z,12.46
2023-04-26T03:08:39.907Z,12.48
2023-04-26T03:09:39.856Z,12.45
2023-04-26T03:10:39.792Z,12.44
2023-04-26T03:11:39.736Z,12.48
2023-04-26T03:12:39.690Z,12.46
2023-04-26T03:13:39.623Z,12.45
2023-04-26T03:14:39.566Z,12.45
2023-04-26T03:15:39.511Z,12.27
2023-04-26T03:16:39.497Z,12.34
2023-04-26T03:17:39.422Z,12.37
2023-04-26T03:18:39.340Z,12.37
2023-04-26T03:19:39.288Z,12.39
2023-04-26T03:20:39.233Z,12.38
2023-04-26T03:21:39.178Z,12.39
2023-04-26T03:22:39.122Z,12.37
2023-04-26T03:23:39.062Z,12.37
2023-04-26T03:24:39.004Z,12.34
2023-04-26T03:25:38.945Z,12.38
2023-04-26T03:26:38.896Z,12.33
2023-04-26T03:27:38.837Z,12.33
2023-04-26T03:28:38.788Z,12.33
2023-04-26T03:29:38.722Z,12.37
2023-04-26T03:30:38.663Z,12.37
2023-04-26T03:31:38.629Z,12.39
2023-04-26T03:32:38.712Z,12.30
2023-04-26T03:33:38.494Z,12.33
2023-04-26T03:34:38.435Z,12.37
2023-04-26T03:35:38.385Z,12.38
2023-04-26T03:36:38.390Z,12.38
2023-04-26T03:37:38.270Z,12.37
2023-04-26T03:38:38.214Z,12.37
2023-04-26T03:39:38.151Z,12.38
2023-04-26T03:40:38.102Z,12.31
2023-04-26T03:41:38.039Z,12.34
2023-04-26T03:42:37.983Z,12.37
2023-04-26T03:43:37.948Z,12.37
2023-04-26T03:44:37.882Z,12.29
2023-04-26T03:45:37.828Z,12.30
2023-04-26T03:46:37.774Z,12.34
2023-04-26T03:47:37.815Z,12.30
2023-04-26T03:48:37.701Z,12.30
2023-04-26T03:49:37.592Z,12.34
2023-04-26T03:50:37.533Z,12.31
2023-04-26T03:51:37.476Z,12.27
2023-04-26T03:52:37.425Z,12.30
2023-04-26T03:53:37.368Z,12.31
2023-04-26T03:54:37.306Z,12.29
2023-04-26T03:55:37.247Z,12.30
2023-04-26T03:56:37.200Z,12.29
2023-04-26T03:57:37.130Z,12.34
2023-04-26T03:58:37.076Z,12.37
2023-04-26T03:59:37.035Z,12.26
2023-04-26T04:00:36.979Z,12.27
2023-04-26T04:01:36.907Z,12.24
2023-04-26T04:02:36.996Z,12.30
2023-04-26T04:03:39.355Z,12.31
2023-04-26T04:04:36.901Z,12.24
2023-04-26T04:05:36.706Z,12.24
2023-04-26T04:06:36.627Z,12.26
2023-04-26T04:07:36.569Z,12.20
2023-04-26T04:08:36.505Z,12.24
2023-04-26T04:09:36.454Z,12.30
2023-04-26T04:10:36.395Z,12.16
2023-04-26T04:11:36.349Z,12.29
2023-04-26T04:12:36.287Z,12.19
2023-04-26T04:13:36.223Z,12.24
2023-04-26T04:14:36.181Z,12.26
2023-04-26T04:15:36.122Z,12.26
2023-04-26T04:16:36.068Z,12.21
2023-04-26T04:17:38.225Z,12.26
2023-04-26T04:18:35.947Z,12.16
2023-04-26T04:19:35.894Z,12.23
2023-04-26T04:20:35.844Z,12.20
2023-04-26T04:21:35.769Z,12.16
2023-04-26T04:22:35.718Z,12.19
2023-04-26T04:23:35.652Z,12.19
2023-04-26T04:24:35.601Z,12.16
2023-04-26T04:25:35.547Z,12.16
2023-04-26T04:26:35.485Z,12.24
2023-04-26T04:27:35.424Z,12.12
2023-04-26T04:28:35.375Z,12.20
2023-04-26T04:29:35.325Z,12.19
2023-04-26T04:30:35.254Z,12.24
2023-04-26T04:31:35.219Z,12.20
2023-04-26T04:32:35.170Z,12.11
2023-04-26T04:33:35.086Z,12.19
2023-04-26T04:34:35.036Z,12.13
2023-04-26T04:35:34.975Z,12.13
2023-04-26T04:36:34.915Z,12.13
2023-04-26T04:37:34.961Z,12.13
2023-04-26T04:38:34.806Z,12.19
2023-04-26T04:39:34.756Z,12.15
2023-04-26T04:40:34.690Z,12.06
2023-04-26T04:41:34.639Z,12.13
2023-04-26T04:42:34.578Z,12.06
2023-04-26T04:43:34.524Z,12.08
2023-04-26T04:44:34.466Z,12.13
2023-04-26T04:45:34.410Z,12.01
2023-04-26T04:46:34.415Z,12.06
2023-04-26T04:47:34.358Z,12.05
2023-04-26T04:48:34.364Z,12.04
2023-04-26T04:49:34.176Z,12.05
2023-04-26T04:50:34.122Z,12.02
2023-04-26T04:51:34.075Z,11.99
2023-04-26T04:52:34.019Z,12.08
2023-04-26T04:53:33.969Z,12.02
2023-04-26T04:54:33.916Z,12.06
2023-04-26T04:55:33.845Z,12.02
2023-04-26T04:56:33.783Z,12.02
2023-04-26T04:57:33.731Z,12.06
2023-04-26T04:58:33.668Z,12.04
2023-04-26T04:59:33.610Z,11.94
2023-04-26T05:00:33.551Z,12.01
2023-04-26T05:01:33.561Z,12.06
2023-04-26T05:02:33.531Z,12.05
2023-04-26T05:03:33.522Z,12.02
2023-04-26T05:04:33.608Z,12.05
2023-04-26T05:05:33.272Z,12.01
2023-04-26T05:06:33.209Z,11.93
2023-04-26T05:07:33.159Z,11.96
2023-04-26T05:08:33.100Z,11.96
2023-04-26T05:09:33.042Z,11.99
2023-04-26T05:10:32.989Z,12.06
2023-04-26T05:11:32.928Z,11.96
2023-04-26T05:12:32.882Z,11.94
2023-04-26T05:13:32.811Z,11.96
2023-04-26T05:14:32.766Z,11.99
2023-04-26T05:15:32.701Z,11.96
2023-04-26T05:16:32.687Z,11.97
2023-04-26T05:17:32.648Z,11.97
2023-04-26T05:18:32.534Z,12.05
2023-04-26T05:19:32.476Z,11.99
2023-04-26T05:20:32.421Z,11.97
2023-04-26T05:21:32.363Z,11.96
2023-04-26T05:22:32.305Z,11.93
2023-04-26T05:23:32.249Z,12.02
2023-04-26T05:24:32.211Z,12.01
2023-04-26T05:25:32.145Z,11.96
2023-04-26T05:26:32.078Z,11.99
2023-04-26T05:27:32.032Z,11.99
2023-04-26T05:28:31.963Z,12.01
2023-04-26T05:29:31.906Z,11.96
2023-04-26T05:30:31.845Z,11.93
2023-04-26T05:31:31.821Z,11.97
2023-04-26T05:32:31.750Z,11.94
2023-04-26T05:33:31.680Z,11.94
2023-04-26T05:34:31.617Z,11.93
2023-04-26T05:35:31.568Z,11.97
2023-04-26T05:36:31.515Z,11.96
2023-04-26T05:37:31.451Z,11.96
2023-04-26T05:38:31.393Z,11.96
2023-04-26T05:39:31.336Z,11.96
2023-04-26T05:40:31.280Z,11.96
2023-04-26T05:41:31.218Z,11.94
2023-04-26T05:42:31.190Z,12.01
2023-04-26T05:43:31.112Z,11.96
2023-04-26T05:44:31.058Z,11.90
2023-04-26T05:45:31.045Z,12.06
2023-04-26T05:46:30.978Z,12.02
2023-04-26T05:47:30.913Z,11.90
2023-04-26T05:48:30.829Z,11.99
2023-04-26T05:49:30.775Z,11.93
2023-04-26T05:50:30.718Z,11.97
2023-04-26T05:51:30.651Z,11.96
2023-04-26T05:52:30.610Z,12.01
2023-04-26T05:53:45.251Z,11.94
2023-04-26T05:54:30.479Z,11.94
2023-04-26T05:55:30.420Z,12.05
2023-04-26T05:56:30.363Z,11.99
2023-04-26T05:57:30.346Z,11.96
2023-04-26T05:58:30.274Z,11.87
2023-04-26T05:59:30.190Z,12.04
2023-04-26T06:00:30.140Z,12.02
2023-04-26T06:01:30.077Z,11.89
2023-04-26T06:02:30.145Z,11.97
2023-04-26T06:03:30.394Z,11.96
2023-04-26T06:04:30.130Z,11.89
2023-04-26T06:05:30.000Z,12.02
2023-04-26T06:06:29.788Z,11.97
2023-04-26T06:07:29.737Z,12.05
2023-04-26T06:08:29.694Z,11.99
2023-04-26T06:09:29.626Z,11.85
2023-04-26T06:10:29.572Z,11.87
2023-04-26T06:11:29.512Z,11.93
2023-04-26T06:12:29.448Z,11.86
2023-04-26T06:13:29.394Z,11.93
2023-04-26T06:14:30.863Z,12.01
2023-04-26T06:15:29.286Z,11.97
2023-04-26T06:16:29.246Z,11.94
2023-04-26T06:17:29.196Z,11.86
2023-04-26T06:18:29.123Z,12.02
2023-04-26T06:19:29.054Z,11.90
2023-04-26T06:20:29.054Z,11.97
2023-04-26T06:21:28.937Z,11.97
2023-04-26T06:22:28.874Z,11.93
2023-04-26T06:23:28.820Z,12.05
2023-04-26T06:24:28.766Z,11.96
2023-04-26T06:25:28.711Z,11.94
2023-04-26T06:26:28.659Z,11.97
2023-04-26T06:27:28.607Z,11.96
2023-04-26T06:28:28.543Z,11.93
2023-04-26T06:29:28.481Z,11.94
2023-04-26T06:30:28.460Z,11.96
2023-04-26T06:31:28.435Z,11.94
2023-04-26T06:32:28.340Z,11.96
2023-04-26T06:33:28.265Z,11.93
2023-04-26T06:34:28.204Z,11.99
2023-04-26T06:35:28.145Z,11.99
2023-04-26T06:36:28.086Z,11.96
2023-04-26T06:37:28.032Z,11.96
2023-04-26T06:38:27.970Z,12.01
2023-04-26T06:39:27.916Z,11.96
2023-04-26T06:40:28.009Z,11.99
2023-04-26T06:41:27.801Z,11.94
2023-04-26T06:42:27.741Z,12.01
2023-04-26T06:43:27.693Z,12.01
2023-04-26T06:44:27.629Z,11.96
2023-04-26T06:45:27.572Z,11.96
2023-04-26T06:46:27.579Z,11.99
2023-04-26T06:47:27.496Z,12.01
2023-04-26T06:48:27.401Z,12.01
2023-04-26T06:49:27.342Z,11.96
2023-04-26T06:50:27.340Z,11.96
2023-04-26T06:51:27.233Z,11.97
2023-04-26T06:52:27.206Z,11.96
2023-04-26T06:53:27.115Z,11.96
2023-04-26T06:54:27.054Z,11.96
2023-04-26T06:55:27.004Z,11.99
2023-04-26T06:56:26.998Z,12.01
2023-04-26T06:57:26.896Z,12.09
2023-04-26T06:58:26.831Z,12.05
2023-04-26T06:59:26.770Z,11.99
2023-04-26T07:00:26.779Z,12.01
2023-04-26T07:01:26.685Z,11.96
2023-04-26T07:02:26.717Z,12.01
2023-04-26T07:03:26.660Z,12.04
2023-04-26T07:04:26.645Z,12.04
2023-04-26T07:05:26.448Z,11.93
2023-04-26T07:06:26.373Z,11.94
2023-04-26T07:07:26.329Z,11.96
2023-04-26T07:08:26.263Z,11.90
2023-04-26T07:09:26.203Z,12.01
2023-04-26T07:10:26.242Z,12.05
2023-04-26T07:11:26.447Z,12.06
2023-04-26T07:12:26.264Z,12.02
2023-04-26T07:13:25.980Z,12.02
2023-04-26T07:14:25.928Z,12.05
2023-04-26T07:15:25.861Z,12.01
2023-04-26T07:16:25.851Z,12.02
2023-04-26T07:17:25.743Z,11.97
2023-04-26T07:18:25.689Z,11.99
2023-04-26T07:19:25.633Z,12.05
2023-04-26T07:20:25.637Z,12.04
2023-04-26T07:21:25.521Z,12.06
2023-04-26T07:22:25.459Z,12.01
2023-04-26T07:23:25.409Z,12.06
2023-04-26T07:24:25.348Z,12.05
2023-04-26T07:25:25.509Z,12.09
2023-04-26T07:26:25.230Z,12.01
2023-04-26T07:27:25.176Z,12.08
2023-04-26T07:28:25.125Z,12.02
2023-04-26T07:29:25.057Z,11.99
2023-04-26T07:30:25.058Z,12.02
2023-04-26T07:31:24.948Z,12.06
2023-04-26T07:32:24.939Z,12.02
2023-04-26T07:33:24.950Z,12.09
2023-04-26T07:34:24.780Z,11.97
2023-04-26T07:35:24.728Z,12.06
2023-04-26T07:36:25.214Z,12.01
2023-04-26T07:37:24.603Z,12.06
2023-04-26T07:38:24.543Z,12.02
2023-04-26T07:39:24.494Z,11.99
2023-04-26T07:40:24.451Z,12.02
2023-04-26T07:41:24.377Z,12.09
2023-04-26T07:42:24.342Z,12.02
2023-04-26T07:43:24.294Z,12.02
2023-04-26T07:44:24.257Z,12.04
2023-04-26T07:45:24.168Z,12.04
2023-04-26T07:46:24.213Z,12.06
2023-04-26T07:47:24.041Z,12.05
2023-04-26T07:48:23.976Z,12.08
2023-04-26T07:49:23.921Z,12.04
2023-04-26T07:50:23.864Z,12.04
2023-04-26T07:51:23.811Z,12.01
2023-04-26T07:52:23.750Z,12.02
2023-04-26T07:53:23.694Z,12.06
2023-04-26T07:54:23.638Z,12.08
2023-04-26T07:55:23.581Z,12.04
2023-04-26T07:56:23.521Z,12.01
2023-04-26T07:57:23.477Z,12.04
2023-04-26T07:58:23.410Z,12.05
2023-04-26T07:59:23.351Z,12.06
2023-04-26T08:00:23.316Z,12.04
2023-04-26T08:01:23.248Z,12.01
2023-04-26T08:02:27.226Z,12.04
2023-04-26T08:03:23.274Z,12.02
2023-04-26T08:04:23.228Z,11.99
2023-04-26T08:05:23.295Z,12.06
2023-04-26T08:06:22.997Z,12.02
2023-04-26T08:07:22.890Z,12.11
2023-04-26T08:08:22.847Z,12.02
2023-04-26T08:09:22.776Z,12.05
2023-04-26T08:10:22.728Z,12.08
2023-04-26T08:11:22.685Z,12.13
2023-04-26T08:12:22.609Z,12.05
2023-04-26T08:13:22.566Z,12.15
2023-04-26T08:14:22.494Z,12.08
2023-04-26T08:15:22.441Z,12.11
2023-04-26T08:16:22.531Z,12.05
2023-04-26T08:17:22.367Z,12.02
2023-04-26T08:18:22.283Z,12.06
2023-04-26T08:19:22.229Z,12.04
2023-04-26T08:20:22.777Z,12.12
2023-04-26T08:21:22.102Z,12.12
2023-04-26T08:22:22.050Z,12.15
2023-04-26T08:23:21.979Z,12.13
2023-04-26T08:24:21.920Z,12.09
2023-04-26T08:25:21.861Z,12.16
2023-04-26T08:26:21.818Z,12.15
2023-04-26T08:27:21.755Z,12.16
2023-04-26T08:28:21.701Z,12.06
2023-04-26T08:29:21.640Z,12.15
2023-04-26T08:30:21.584Z,12.15
2023-04-26T08:31:21.557Z,12.12
2023-04-26T08:32:21.601Z,12.13
2023-04-26T08:33:21.408Z,12.12
2023-04-26T08:34:21.369Z,12.19
2023-04-26T08:35:21.301Z,12.13
2023-04-26T08:36:21.251Z,12.09
2023-04-26T08:37:21.180Z,12.11
2023-04-26T08:38:21.135Z,12.15
2023-04-26T08:39:21.105Z,12.11
2023-04-26T08:40:21.017Z,12.12
2023-04-26T08:41:20.996Z,12.13
2023-04-26T08:42:20.896Z,12.13
2023-04-26T08:43:20.842Z,12.11
2023-04-26T08:44:20.781Z,12.13
2023-04-26T08:45:20.741Z,12.15
2023-04-26T08:46:20.733Z,12.19
2023-04-26T08:47:20.614Z,12.15
2023-04-26T08:48:20.610Z,12.12
2023-04-26T08:49:20.515Z,12.20
2023-04-26T08:50:20.446Z,12.11
2023-04-26T08:51:31.319Z,12.16
2023-04-26T08:52:20.330Z,12.19
2023-04-26T08:53:20.274Z,12.12
2023-04-26T08:54:20.241Z,12.19
2023-04-26T08:55:20.388Z,12.15
2023-04-26T08:56:20.098Z,12.19
2023-04-26T08:57:20.051Z,12.15
2023-04-26T08:58:20.020Z,12.12
2023-04-26T08:59:19.947Z,12.16
2023-04-26T09:00:19.922Z,12.16
2023-04-26T09:01:19.840Z,12.27
2023-04-26T09:02:19.868Z,12.16
2023-04-26T09:03:19.806Z,12.20
2023-04-26T09:04:19.932Z,12.13
2023-04-26T09:05:19.642Z,12.15
2023-04-26T09:06:19.574Z,12.21
2023-04-26T09:07:19.478Z,12.27
2023-04-26T09:08:19.431Z,12.27
2023-04-26T09:09:19.357Z,12.26
2023-04-26T09:10:19.306Z,12.23
2023-04-26T09:11:19.257Z,12.19
2023-04-26T09:12:19.781Z,12.19
2023-04-26T09:13:19.132Z,12.21
2023-04-26T09:14:19.081Z,12.26
2023-04-26T09:15:19.034Z,12.23
2023-04-26T09:16:19.017Z,12.26
2023-04-26T09:17:18.945Z,12.26
2023-04-26T09:18:18.865Z,12.27
2023-04-26T09:19:18.795Z,12.21
2023-04-26T09:20:18.745Z,12.26
2023-04-26T09:21:18.679Z,12.31
2023-04-26T09:22:18.627Z,12.31
2023-04-26T09:23:18.578Z,12.29
2023-04-26T09:24:18.506Z,12.31
2023-04-26T09:25:18.454Z,12.33
2023-04-26T09:26:19.273Z,12.31
2023-04-26T09:27:18.355Z,12.26
2023-04-26T09:28:18.293Z,12.30
2023-04-26T09:29:18.238Z,12.33
2023-04-26T09:30:18.163Z,12.34
2023-04-26T09:31:18.141Z,12.38
2023-04-26T09:32:18.057Z,12.37
2023-04-26T09:33:18.039Z,12.34
2023-04-26T09:34:18.014Z,12.33
2023-04-26T09:35:17.894Z,12.33
2023-04-26T09:36:17.834Z,12.33
2023-04-26T09:37:17.776Z,12.34
2023-04-26T09:38:17.741Z,12.31
2023-04-26T09:39:17.662Z,12.34
2023-04-26T09:40:17.604Z,12.37
2023-04-26T09:41:17.546Z,12.37
2023-04-26T09:42:19.271Z,12.37
2023-04-26T09:43:17.435Z,12.34
2023-04-26T09:44:17.368Z,12.34
2023-04-26T09:45:17.315Z,12.37
2023-04-26T09:46:17.283Z,12.34
2023-04-26T09:47:17.218Z,12.37
2023-04-26T09:48:17.144Z,12.37
2023-04-26T09:49:17.296Z,12.34
2023-04-26T09:50:17.030Z,12.34
2023-04-26T09:51:16.973Z,12.33
2023-04-26T09:52:16.927Z,12.37
2023-04-26T09:53:16.865Z,12.31
2023-04-26T09:54:16.795Z,12.30
2023-04-26T09:55:31.137Z,12.37
2023-04-26T09:56:16.688Z,12.38
2023-04-26T09:57:16.656Z,12.33
2023-04-26T09:58:16.568Z,12.37
2023-04-26T09:59:16.528Z,12.29
2023-04-26T10:00:17.293Z,12.37
2023-04-26T10:01:16.651Z,12.39
2023-04-26T10:02:16.394Z,12.45
2023-04-26T10:03:16.404Z,12.45
2023-04-26T10:04:16.311Z,12.34
2023-04-26T10:05:16.187Z,12.31
2023-04-26T10:06:16.126Z,12.30
2023-04-26T10:07:16.103Z,12.37
2023-04-26T10:08:16.016Z,12.39
2023-04-26T10:09:15.981Z,12.45
2023-04-26T10:10:15.917Z,12.45
2023-04-26T10:11:16.073Z,12.45
2023-04-26T10:12:15.774Z,12.45
2023-04-26T10:13:15.716Z,12.45
2023-04-26T10:14:15.658Z,12.46
2023-04-26T10:15:15.606Z,12.48
2023-04-26T10:16:15.553Z,12.52
2023-04-26T10:17:15.496Z,12.46
2023-04-26T10:18:15.494Z,12.45
2023-04-26T10:19:15.386Z,12.44
2023-04-26T10:20:15.315Z,12.49
2023-04-26T10:21:15.256Z,12.46
2023-04-26T10:22:15.205Z,12.49
2023-04-26T10:23:17.243Z,12.44
2023-04-26T10:24:15.218Z,12.45
2023-04-26T10:25:15.039Z,12.51
2023-04-26T10:26:14.985Z,12.48
2023-04-26T10:27:14.922Z,12.48
2023-04-26T10:28:14.861Z,12.51
2023-04-26T10:29:14.823Z,12.46
2023-04-26T10:30:14.750Z,12.48
2023-04-26T10:31:14.693Z,12.44
2023-04-26T10:32:14.756Z,12.48
2023-04-26T10:33:14.723Z,12.41
2023-04-26T10:34:14.535Z,12.39
2023-04-26T10:35:14.480Z,12.48
2023-04-26T10:36:14.424Z,12.45
2023-04-26T10:37:14.361Z,12.42
2023-04-26T10:38:14.303Z,12.48
2023-04-26T10:39:14.244Z,12.44
2023-04-26T10:40:14.193Z,12.44
2023-04-26T10:41:14.129Z,12.44
2023-04-26T10:42:14.087Z,12.46
2023-04-26T10:43:14.028Z,12.48
2023-04-26T10:44:13.961Z,12.48
2023-04-26T10:45:14.016Z,12.57
2023-04-26T10:46:15.542Z,12.45
2023-04-26T10:47:13.783Z,12.54
2023-04-26T10:48:13.742Z,12.48
2023-04-26T10:49:13.681Z,12.59
2023-04-26T10:50:13.661Z,12.57
2023-04-26T10:51:13.579Z,12.54
2023-04-26T10:52:13.518Z,12.57
2023-04-26T10:53:13.452Z,12.57
2023-04-26T10:54:14.309Z,12.56
2023-04-26T10:55:14.309Z,12.62
2023-04-26T10:56:13.420Z,12.62
2023-04-26T10:57:13.224Z,12.57
2023-04-26T10:58:13.175Z,12.63
2023-04-26T10:59:33.082Z,12.54
2023-04-26T11:00:13.047Z,12.63
2023-04-26T11:01:13.031Z,12.59
2023-04-26T11:02:12.986Z,12.57
2023-04-26T11:03:13.161Z,12.56
2023-04-26T11:04:12.946Z,12.67
2023-04-26T11:05:13.310Z,12.59
2023-04-26T11:06:12.707Z,12.57
2023-04-26T11:07:12.665Z,12.63
2023-04-26T11:08:12.596Z,12.64
2023-04-26T11:09:12.534Z,12.67
2023-04-26T11:10:12.505Z,12.62
2023-04-26T11:11:12.473Z,12.69
2023-04-26T11:12:12.418Z,12.57
2023-04-26T11:13:12.328Z,12.69
2023-04-26T11:14:12.253Z,12.64
2023-04-26T11:15:12.197Z,12.71
2023-04-26T11:16:12.235Z,12.75
2023-04-26T11:17:12.135Z,12.64
2023-04-26T11:18:12.028Z,12.54
2023-04-26T11:19:11.985Z,12.69
2023-04-26T11:20:11.925Z,12.59
2023-04-26T11:21:11.863Z,12.62
2023-04-26T11:22:11.814Z,12.64
2023-04-26T11:23:11.744Z,12.66
2023-04-26T11:24:11.687Z,12.62
2023-04-26T11:25:11.648Z,12.63
2023-04-26T11:26:11.572Z,12.62
2023-04-26T11:27:11.540Z,12.66
2023-04-26T11:28:11.619Z,12.66
2023-04-26T11:29:11.418Z,12.66
2023-04-26T11:30:11.343Z,12.62
2023-04-26T11:31:11.310Z,12.70
2023-04-26T11:32:11.237Z,12.63
2023-04-26T11:33:11.229Z,12.66
2023-04-26T11:34:11.137Z,12.66
2023-04-26T11:35:11.080Z,12.71
2023-04-26T11:36:11.033Z,12.71
2023-04-26T11:37:10.949Z,12.66
2023-04-26T11:38:10.897Z,12.70
2023-04-26T11:39:11.976Z,12.67
2023-04-26T11:40:10.796Z,12.66
2023-04-26T11:41:10.718Z,12.75
2023-04-26T11:42:10.672Z,12.77
2023-04-26T11:43:10.626Z,12.75
2023-04-26T11:44:10.659Z,12.71
2023-04-26T11:45:10.536Z,12.77
2023-04-26T11:46:10.565Z,12.77
2023-04-26T11:47:10.419Z,12.77
2023-04-26T11:48:10.383Z,12.71
2023-04-26T11:49:10.331Z,12.79
2023-04-26T11:50:10.231Z,12.67
2023-04-26T11:51:10.159Z,12.71
2023-04-26T11:52:10.102Z,12.79
2023-04-26T11:53:10.091Z,12.77
2023-04-26T11:54:09.992Z,12.84
2023-04-26T11:55:09.934Z,12.82
2023-04-26T11:56:09.883Z,12.78
2023-04-26T11:57:09.836Z,12.71
2023-04-26T11:58:09.781Z,12.75
2023-04-26T11:59:09.747Z,12.78
2023-04-26T12:00:10.396Z,12.78
2023-04-26T12:01:09.588Z,12.78
2023-04-26T12:02:09.550Z,12.78
2023-04-26T12:03:09.694Z,12.81
2023-04-26T12:04:09.559Z,12.82
2023-04-26T12:05:09.489Z,12.77
2023-04-26T12:06:09.342Z,12.82
2023-04-26T12:07:09.255Z,12.82
2023-04-26T12:08:09.192Z,12.82
2023-04-26T12:09:09.135Z,12.77
2023-04-26T12:10:09.083Z,12.79
2023-04-26T12:11:09.058Z,12.84
2023-04-26T12:12:08.966Z,12.77
2023-04-26T12:13:08.913Z,12.70
2023-04-26T12:14:08.861Z,12.88
2023-04-26T12:15:08.801Z,12.88
2023-04-26T12:16:22.288Z,12.81
2023-04-26T12:17:08.764Z,12.78
2023-04-26T12:18:08.766Z,12.82
2023-04-26T12:19:08.583Z,12.85
2023-04-26T12:20:08.542Z,12.92
2023-04-26T12:21:08.463Z,12.84
2023-04-26T12:22:08.556Z,12.89
2023-04-26T12:23:08.351Z,12.87
2023-04-26T12:24:08.312Z,12.85
2023-04-26T12:25:08.238Z,12.87
2023-04-26T12:26:08.179Z,12.84
2023-04-26T12:27:08.151Z,12.85
2023-04-26T12:28:08.080Z,12.82
2023-04-26T12:29:08.025Z,12.85
2023-04-26T12:30:07.949Z,12.92
2023-04-26T12:31:07.973Z,12.85
2023-04-26T12:32:08.020Z,12.88
2023-04-26T12:33:16.604Z,12.87
2023-04-26T12:34:07.743Z,12.96
2023-04-26T12:35:07.668Z,12.92
2023-04-26T12:36:07.642Z,12.87
2023-04-26T12:37:07.572Z,12.96
2023-04-26T12:38:07.496Z,12.87
2023-04-26T12:39:07.450Z,12.96
2023-04-26T12:40:07.406Z,12.95
2023-04-26T12:41:07.386Z,12.87
2023-04-26T12:42:07.818Z,12.93
2023-04-26T12:43:07.821Z,12.97
2023-04-26T12:44:07.291Z,12.96
2023-04-26T12:45:07.100Z,12.89
2023-04-26T12:46:07.073Z,12.96
2023-04-26T12:47:06.993Z,12.99
2023-04-26T12:48:07.080Z,12.89
2023-04-26T12:49:06.890Z,12.93
2023-04-26T12:50:06.851Z,12.93
2023-04-26T12:51:06.765Z,12.99
2023-04-26T12:52:06.715Z,12.93